Terminal Aerodrome Forecast
Issued by NWS Jackson, MS

Home | Current Version | Previous Version | Text Only | Print | Product List | Glossary On
Versions: 1 2 3 4 5 6 7 8 9 10 11 12 13 14 15 16 17 18 19
000
FTUS44 KJAN 301158 AAA
TAFMEI
TAF AMD
KMEI 301158Z 3012/3112 00000KT 5SM BR SCT010
     FM301400 19006KT P6SM SCT020 BKN040
     FM301900 20007KT 5SM -TSRA SCT030 BKN050CB
     FM310200 21006KT 6SM -SHRA VCTS SCT030 BKN050CB BKN150
     FM310900 19004KT 4SM BR BKN009 OVC020=

USA.gov is the U.S. government's official web portal to all federal, state and local government web resources and services.